createdAt,value
2023-01-25T00:02:10.081Z,12.55
2023-01-25T00:04:36.988Z,10.48
2023-01-25T00:07:03.940Z,11.77
2023-01-25T00:09:30.834Z,12.55
2023-01-25T00:11:58.171Z,10.02
2023-01-25T00:14:25.811Z,11.80
2023-01-25T00:16:53.168Z,10.40
2023-01-25T00:19:20.415Z,11.60
2023-01-25T00:21:48.154Z,12.60
2023-01-25T00:24:15.101Z,13.20
2023-01-25T00:26:46.636Z,10.07
2023-01-25T00:29:14.811Z,13.00
2023-01-25T00:32:07.327Z,13.23
2023-01-25T00:34:50.735Z,10.80
2023-01-25T00:37:28.385Z,10.85
2023-01-25T00:39:55.477Z,12.07
2023-01-25T00:42:23.213Z,11.52
2023-01-25T00:44:50.301Z,12.20
2023-01-25T00:47:17.705Z,12.88
2023-01-25T00:49:46.379Z,13.80
2023-01-25T00:52:14.268Z,13.38
2023-01-25T00:54:41.812Z,12.98
2023-01-25T00:57:09.747Z,12.35
2023-01-25T00:59:36.701Z,13.25
2023-01-25T01:02:04.373Z,11.18
2023-01-25T01:04:31.926Z,13.50
2023-01-25T01:06:59.149Z,12.57
2023-01-25T01:09:26.579Z,13.13
2023-01-25T01:11:54.448Z,12.77
2023-01-25T01:14:24.009Z,13.55
2023-01-25T01:16:50.949Z,13.85
2023-01-25T01:19:18.864Z,12.57
2023-01-25T01:21:45.947Z,11.88
2023-01-25T01:24:12.965Z,14.02
2023-01-25T01:26:39.936Z,12.68
2023-01-25T01:29:07.098Z,12.45
2023-01-25T01:31:34.165Z,11.02
2023-01-25T01:34:01.810Z,12.00
2023-01-25T01:36:30.765Z,11.00
2023-01-25T01:38:59.752Z,11.50
2023-01-25T01:41:27.618Z,12.60
2023-01-25T01:43:54.599Z,12.52
2023-01-25T01:46:38.869Z,12.25
2023-01-25T01:49:32.881Z,12.30
2023-01-25T01:52:11.365Z,11.98
2023-01-25T01:55:04.787Z,12.05
2023-01-25T01:57:55.862Z,12.38
2023-01-25T02:00:36.742Z,11.35
2023-01-25T02:03:03.905Z,9.63
2023-01-25T02:05:48.365Z,11.63
2023-01-25T02:08:16.214Z,10.18
2023-01-25T02:10:45.734Z,12.30
2023-01-25T02:13:13.030Z,11.43
2023-01-25T02:15:52.106Z,13.02
2023-01-25T02:18:20.249Z,10.95
2023-01-25T02:20:59.029Z,12.95
2023-01-25T02:23:50.781Z,13.38
2023-01-25T02:26:19.548Z,11.93
2023-01-25T02:29:02.012Z,14.77
2023-01-25T02:31:29.196Z,11.93
2023-01-25T02:33:56.184Z,12.93
2023-01-25T02:36:34.070Z,13.10
2023-01-25T02:39:20.120Z,10.45
2023-01-25T02:41:48.052Z,12.25
2023-01-25T02:44:34.222Z,12.90
2023-01-25T02:47:01.524Z,11.65
2023-01-25T02:49:28.475Z,12.60
2023-01-25T02:51:57.282Z,11.02
2023-01-25T02:54:26.783Z,11.60
2023-01-25T02:56:53.891Z,11.35
2023-01-25T02:59:21.549Z,11.35
2023-01-25T03:01:49.928Z,11.30
2023-01-25T03:04:17.036Z,11.25
2023-01-25T03:06:44.234Z,10.60
2023-01-25T03:09:12.521Z,10.10
2023-01-25T03:11:39.422Z,10.23
2023-01-25T03:14:06.373Z,10.40
2023-01-25T03:16:33.789Z,9.02
2023-01-25T03:19:00.805Z,10.57
2023-01-25T03:21:27.841Z,10.32
2023-01-25T03:24:00.454Z,10.68
2023-01-25T03:26:29.822Z,10.77
2023-01-25T03:28:57.005Z,11.25
2023-01-25T03:31:24.827Z,9.80
2023-01-25T03:33:51.982Z,10.43
2023-01-25T03:36:19.093Z,9.32
2023-01-25T03:38:46.012Z,9.23
2023-01-25T03:41:13.873Z,10.00
2023-01-25T03:43:40.846Z,9.90
2023-01-25T03:46:07.887Z,9.85
2023-01-25T03:48:35.139Z,11.13
2023-01-25T03:51:02.250Z,8.57
2023-01-25T03:53:31.989Z,9.23
2023-01-25T03:56:05.156Z,9.20
2023-01-25T03:58:32.156Z,9.75
2023-01-25T04:01:02.220Z,9.30
2023-01-25T04:03:31.449Z,7.72
2023-01-25T04:06:00.055Z,10.20
2023-01-25T04:08:27.413Z,9.05
2023-01-25T04:11:08.386Z,12.50
2023-01-25T04:13:38.496Z,11.70
2023-01-25T04:16:09.115Z,9.77
2023-01-25T04:18:36.136Z,11.18
2023-01-25T04:21:03.189Z,12.10
2023-01-25T04:23:30.236Z,10.40
2023-01-25T04:26:05.660Z,11.88
2023-01-25T04:28:35.732Z,9.10
2023-01-25T04:31:06.225Z,12.20
2023-01-25T04:33:34.723Z,10.27
2023-01-25T04:36:01.949Z,12.98
2023-01-25T04:38:29.042Z,11.20
2023-01-25T04:40:55.914Z,11.73
2023-01-25T04:43:22.923Z,11.27
2023-01-25T04:45:49.876Z,11.90
2023-01-25T04:48:16.873Z,11.38
2023-01-25T04:50:46.073Z,12.23
2023-01-25T04:53:13.818Z,12.45
2023-01-25T04:55:44.001Z,11.05
2023-01-25T04:58:10.863Z,11.20
2023-01-25T05:00:37.723Z,11.70
2023-01-25T05:03:04.801Z,10.45
2023-01-25T05:05:31.979Z,11.43
2023-01-25T05:07:58.851Z,11.60
2023-01-25T05:10:25.772Z,10.63
2023-01-25T05:12:52.636Z,11.23
2023-01-25T05:15:19.587Z,10.68
2023-01-25T05:17:46.686Z,11.13
2023-01-25T05:20:13.658Z,10.90
2023-01-25T05:22:40.528Z,12.80
2023-01-25T05:25:28.147Z,12.32
2023-01-25T05:27:55.078Z,11.43
2023-01-25T05:30:21.987Z,11.77
2023-01-25T05:32:50.572Z,11.93
2023-01-25T05:35:18.178Z,12.30
2023-01-25T05:37:45.285Z,10.63
2023-01-25T05:40:12.823Z,11.45
2023-01-25T05:42:40.536Z,14.02
2023-01-25T05:45:09.540Z,14.15
2023-01-25T05:47:36.687Z,13.43
2023-01-25T05:50:04.272Z,14.82
2023-01-25T05:52:31.154Z,14.90
2023-01-25T05:54:58.024Z,13.30
2023-01-25T05:57:24.914Z,14.23
2023-01-25T05:59:51.789Z,15.88
2023-01-25T06:02:18.811Z,15.00
2023-01-25T06:04:45.820Z,15.73
2023-01-25T06:07:12.678Z,17.98
2023-01-25T06:09:39.661Z,14.57
2023-01-25T06:12:06.710Z,14.45
2023-01-25T06:14:33.694Z,13.05
2023-01-25T06:17:00.595Z,13.45
2023-01-25T06:19:28.015Z,14.70
2023-01-25T06:21:54.872Z,14.48
2023-01-25T06:24:22.000Z,13.95
2023-01-25T06:26:48.894Z,13.60
2023-01-25T06:29:15.815Z,15.00
2023-01-25T06:31:42.835Z,14.23
2023-01-25T06:34:09.775Z,14.20
2023-01-25T06:36:36.671Z,15.63
2023-01-25T06:39:04.981Z,18.20
2023-01-25T06:41:31.977Z,16.38
2023-01-25T06:43:58.839Z,16.17
2023-01-25T06:46:25.837Z,15.63
2023-01-25T06:48:52.740Z,17.58
2023-01-25T06:51:19.779Z,14.40
2023-01-25T06:53:47.901Z,13.80
2023-01-25T06:56:21.457Z,17.00
2023-01-25T06:58:50.349Z,16.65
2023-01-25T07:01:27.334Z,15.85
2023-01-25T07:03:59.119Z,14.05
2023-01-25T07:06:34.020Z,17.30
2023-01-25T07:09:11.404Z,17.02
2023-01-25T07:11:38.855Z,15.00
2023-01-25T07:14:06.685Z,16.05
2023-01-25T07:16:37.116Z,14.60
2023-01-25T07:19:07.403Z,14.90
2023-01-25T07:21:34.877Z,15.00
2023-01-25T07:24:05.126Z,15.25
2023-01-25T07:26:33.075Z,15.57
2023-01-25T07:29:00.461Z,14.43
2023-01-25T07:31:27.557Z,14.30
2023-01-25T07:33:58.517Z,14.10
2023-01-25T07:36:26.141Z,13.13
2023-01-25T07:38:58.180Z,13.15
2023-01-25T07:41:25.881Z,13.95
2023-01-25T07:43:53.485Z,13.63
2023-01-25T07:46:21.604Z,10.57
2023-01-25T07:48:52.360Z,12.82
2023-01-25T07:51:23.129Z,10.52
2023-01-25T07:53:57.867Z,11.63
2023-01-25T07:56:33.861Z,11.88
2023-01-25T07:59:02.768Z,11.90
2023-01-25T08:01:34.438Z,13.43
2023-01-25T08:04:03.405Z,11.20
2023-01-25T08:06:36.240Z,11.05
2023-01-25T08:09:19.904Z,8.82
2023-01-25T08:11:47.278Z,9.05
2023-01-25T08:14:14.185Z,11.40
2023-01-25T08:16:41.498Z,10.98
2023-01-25T08:19:11.635Z,10.40
2023-01-25T08:21:38.609Z,10.23
2023-01-25T08:24:07.998Z,10.65
2023-01-25T08:26:37.170Z,9.95
2023-01-25T08:29:06.467Z,9.85
2023-01-25T08:31:35.471Z,8.82
2023-01-25T08:34:04.283Z,7.82
2023-01-25T08:36:31.531Z,7.70
2023-01-25T08:39:08.062Z,8.50
2023-01-25T08:41:36.151Z,9.48
2023-01-25T08:44:04.026Z,8.38
2023-01-25T08:46:34.198Z,7.45
2023-01-25T08:49:03.657Z,9.82
2023-01-25T08:51:33.297Z,8.57
2023-01-25T08:54:08.089Z,9.10
2023-01-25T08:56:39.557Z,9.57
2023-01-25T08:59:07.719Z,10.55
2023-01-25T09:03:54.653Z,10.25
2023-01-25T09:06:21.547Z,8.63
2023-01-25T09:08:48.847Z,9.75
2023-01-25T09:11:23.045Z,9.57
2023-01-25T09:13:50.758Z,8.95
2023-01-25T09:16:30.668Z,9.50
2023-01-25T09:19:04.982Z,10.32
2023-01-25T09:21:33.777Z,8.98
2023-01-25T09:24:08.643Z,8.05
2023-01-25T09:26:42.916Z,6.82
2023-01-25T09:29:12.105Z,8.10
2023-01-25T09:31:41.046Z,8.50
2023-01-25T09:34:08.655Z,9.23
2023-01-25T09:36:36.401Z,8.50
2023-01-25T09:39:04.240Z,8.52
2023-01-25T09:42:40.401Z,10.45
2023-01-25T09:45:35.330Z,7.18
2023-01-25T09:48:50.176Z,6.53
2023-01-25T09:52:06.024Z,7.00
2023-01-25T09:54:47.071Z,7.68
2023-01-25T09:57:31.962Z,7.65
2023-01-25T10:00:17.656Z,6.65
2023-01-25T10:03:03.963Z,7.75
2023-01-25T10:05:43.893Z,8.50
2023-01-25T10:08:42.790Z,7.95
2023-01-25T10:11:32.457Z,7.75
2023-01-25T10:14:00.505Z,7.05
2023-01-25T10:16:47.044Z,7.90
2023-01-25T10:20:07.938Z,7.97
2023-01-25T10:23:17.357Z,8.05
2023-01-25T10:26:01.205Z,7.90
2023-01-25T10:28:59.662Z,5.90
2023-01-25T10:31:43.020Z,7.43
2023-01-25T10:34:55.059Z,8.20
2023-01-25T10:37:32.570Z,7.15
2023-01-25T10:40:35.121Z,9.63
2023-01-25T10:43:22.459Z,11.48
2023-01-25T10:45:50.305Z,11.43
2023-01-25T10:48:39.895Z,9.88
2023-01-25T10:51:06.905Z,14.80
2023-01-25T10:53:45.422Z,11.45
2023-01-25T10:56:26.626Z,10.20
2023-01-25T10:59:28.496Z,9.75
2023-01-25T11:01:55.655Z,8.35
2023-01-25T11:04:36.835Z,8.65
2023-01-25T11:07:06.021Z,10.75
2023-01-25T11:09:39.370Z,12.00
2023-01-25T11:12:21.115Z,10.48
2023-01-25T11:14:50.571Z,9.25
2023-01-25T11:17:31.635Z,10.68
2023-01-25T11:20:20.258Z,10.50
2023-01-25T11:22:55.289Z,10.77
2023-01-25T11:25:35.111Z,9.30
2023-01-25T11:28:24.507Z,10.75
2023-01-25T11:30:53.794Z,10.88
2023-01-25T11:33:22.818Z,11.55
2023-01-25T11:36:20.504Z,10.20
2023-01-25T11:39:29.431Z,10.15
2023-01-25T11:42:44.906Z,10.40
2023-01-25T11:46:02.605Z,10.40
2023-01-25T11:49:35.646Z,10.18
2023-01-25T11:52:38.959Z,10.65
2023-01-25T11:55:32.889Z,10.23
2023-01-25T11:59:04.883Z,10.82
2023-01-25T12:01:56.682Z,9.05
2023-01-25T12:04:56.791Z,11.07
2023-01-25T12:08:19.836Z,10.90
2023-01-25T12:11:31.700Z,11.05
2023-01-25T12:14:10.855Z,11.60
2023-01-25T12:17:15.466Z,10.52
2023-01-25T12:20:26.144Z,7.45
2023-01-25T12:23:20.989Z,9.80
2023-01-25T12:26:22.133Z,9.35
2023-01-25T12:29:30.612Z,7.70
2023-01-25T12:32:03.868Z,8.82
2023-01-25T12:34:42.056Z,8.85
2023-01-25T12:37:28.257Z,9.10
2023-01-25T12:40:08.790Z,7.95
2023-01-25T12:42:51.996Z,8.77
2023-01-25T12:45:30.865Z,8.75
2023-01-25T12:48:18.608Z,9.82
2023-01-25T12:50:58.870Z,8.80
2023-01-25T12:53:42.230Z,8.38
2023-01-25T12:56:43.949Z,8.63
2023-01-25T12:59:38.572Z,8.85
2023-01-25T13:02:48.239Z,8.82
2023-01-25T13:05:45.396Z,8.90
2023-01-25T13:08:48.920Z,9.88
2023-01-25T13:11:39.151Z,8.77
2023-01-25T13:14:18.471Z,7.97
2023-01-25T13:17:21.223Z,9.52
2023-01-25T13:19:50.578Z,9.18
2023-01-25T13:22:45.471Z,9.88
2023-01-25T13:25:22.237Z,10.55
2023-01-25T13:27:49.153Z,8.75
2023-01-25T13:30:34.984Z,10.73
2023-01-25T13:33:07.153Z,8.88
2023-01-25T13:35:41.716Z,9.27
2023-01-25T13:38:17.729Z,10.25
2023-01-25T13:40:44.866Z,9.55
2023-01-25T13:43:22.334Z,7.80
2023-01-25T13:45:53.119Z,9.80
2023-01-25T13:48:28.481Z,10.50
2023-01-25T13:51:08.925Z,11.38
2023-01-25T13:53:39.505Z,12.70
2023-01-25T13:56:35.357Z,8.85
2023-01-25T13:59:02.688Z,17.08
2023-01-25T14:01:35.890Z,9.68
2023-01-25T14:04:05.572Z,11.00
2023-01-25T14:06:40.737Z,10.80
2023-01-25T14:09:22.725Z,10.05
2023-01-25T14:12:01.300Z,10.10
2023-01-25T14:14:34.767Z,10.32
2023-01-25T14:17:23.554Z,23.92
2023-01-25T14:19:55.070Z,12.00
2023-01-25T14:22:29.636Z,12.48
2023-01-25T14:25:19.090Z,14.00
2023-01-25T14:28:00.549Z,12.18
2023-01-25T14:30:34.363Z,13.20
2023-01-25T14:33:18.397Z,14.20
2023-01-25T14:35:56.323Z,13.57
2023-01-25T14:38:35.220Z,14.20
2023-01-25T14:41:25.871Z,13.57
2023-01-25T14:44:10.500Z,13.27
2023-01-25T14:46:40.268Z,13.00
2023-01-25T14:49:27.297Z,16.20
2023-01-25T14:52:13.368Z,12.05
2023-01-25T14:55:00.071Z,11.73
2023-01-25T14:57:41.643Z,10.60
2023-01-25T15:00:27.373Z,12.38
2023-01-25T15:02:59.866Z,13.68
2023-01-25T15:05:33.029Z,12.43
2023-01-25T15:08:09.178Z,11.70
2023-01-25T15:10:50.608Z,10.02
2023-01-25T15:13:24.344Z,12.88
2023-01-25T15:16:00.994Z,12.45
2023-01-25T15:18:46.159Z,11.45
2023-01-25T15:21:40.801Z,11.82
2023-01-25T15:24:12.572Z,11.20
2023-01-25T15:26:39.564Z,12.82
2023-01-25T15:29:16.555Z,12.45
2023-01-25T15:31:43.897Z,12.63
2023-01-25T15:34:21.106Z,13.73
2023-01-25T15:36:48.539Z,13.98
2023-01-25T15:39:19.839Z,13.98
2023-01-25T15:41:48.722Z,13.82
2023-01-25T15:44:17.454Z,14.32
2023-01-25T15:46:51.593Z,14.90
2023-01-25T15:49:26.931Z,15.48
2023-01-25T15:51:55.627Z,16.55
2023-01-25T15:54:24.023Z,15.07
2023-01-25T15:56:58.906Z,13.27
2023-01-25T15:59:26.957Z,14.57
2023-01-25T16:01:53.938Z,12.98
2023-01-25T16:04:20.824Z,14.60
2023-01-25T16:06:53.809Z,16.30
2023-01-25T16:09:30.677Z,12.45
2023-01-25T16:12:02.200Z,15.20
2023-01-25T16:14:31.304Z,13.18
2023-01-25T16:17:05.249Z,14.82
2023-01-25T16:19:33.367Z,15.80
2023-01-25T16:22:00.347Z,13.23
2023-01-25T16:24:27.346Z,15.07
2023-01-25T16:26:58.754Z,13.35
2023-01-25T16:29:26.801Z,15.05
2023-01-25T16:31:55.807Z,14.38
2023-01-25T16:34:23.348Z,14.55
2023-01-25T16:36:51.095Z,12.35
2023-01-25T16:39:28.161Z,13.23
2023-01-25T16:41:57.146Z,12.80
2023-01-25T16:44:24.451Z,14.57
2023-01-25T16:46:51.566Z,13.77
2023-01-25T16:49:30.367Z,14.88
2023-01-25T16:52:03.650Z,13.38
2023-01-25T16:54:30.814Z,14.10
2023-01-25T16:56:59.021Z,15.10
2023-01-25T16:59:27.284Z,14.73
2023-01-25T17:01:54.244Z,15.15
2023-01-25T17:04:21.169Z,17.08
2023-01-25T17:06:50.514Z,14.73
2023-01-25T17:09:24.039Z,14.10
2023-01-25T17:11:53.327Z,14.35
2023-01-25T17:14:22.091Z,14.32
2023-01-25T17:16:51.791Z,13.60
2023-01-25T17:19:20.744Z,14.70
2023-01-25T17:21:48.080Z,14.10
2023-01-25T17:24:20.786Z,16.48
2023-01-25T17:26:47.851Z,13.95
2023-01-25T17:29:14.859Z,13.48
2023-01-25T17:31:43.978Z,13.15
2023-01-25T17:34:15.839Z,13.20
2023-01-25T17:36:45.247Z,14.68
2023-01-25T17:39:16.059Z,11.45
2023-01-25T17:41:45.668Z,13.88
2023-01-25T17:44:17.004Z,15.75
2023-01-25T17:46:43.857Z,14.60
2023-01-25T17:49:16.637Z,12.07
2023-01-25T17:51:45.594Z,13.43
2023-01-25T17:54:13.405Z,13.45
2023-01-25T17:56:40.733Z,13.40
2023-01-25T17:59:09.333Z,13.02
2023-01-25T18:01:36.597Z,13.27
2023-01-25T18:04:09.187Z,13.10
2023-01-25T18:06:37.096Z,13.32
2023-01-25T18:09:08.863Z,13.13
2023-01-25T18:11:39.900Z,12.70
2023-01-25T18:14:12.952Z,13.00
2023-01-25T18:16:41.401Z,11.88
2023-01-25T18:19:09.377Z,15.27
2023-01-25T18:21:37.068Z,14.20
2023-01-25T18:24:33.865Z,13.95
2023-01-25T18:27:18.436Z,11.38
2023-01-25T18:30:23.682Z,11.55
2023-01-25T18:32:50.617Z,11.35
2023-01-25T18:35:17.581Z,11.38
2023-01-25T18:37:46.370Z,12.43
2023-01-25T18:40:15.465Z,12.38
2023-01-25T18:42:42.368Z,22.20
2023-01-25T18:45:10.084Z,12.43
2023-01-25T18:47:37.096Z,13.30
2023-01-25T18:50:06.810Z,11.93
2023-01-25T18:52:36.087Z,13.45
2023-01-25T18:55:03.064Z,12.10
2023-01-25T18:57:29.957Z,9.68
2023-01-25T18:59:59.538Z,12.20
2023-01-25T19:02:27.312Z,12.35
2023-01-25T19:04:54.282Z,12.88
2023-01-25T19:07:21.141Z,13.32
2023-01-25T19:09:48.202Z,12.02
2023-01-25T19:12:15.166Z,11.13
2023-01-25T19:14:42.141Z,13.25
2023-01-25T19:17:09.052Z,12.35
2023-01-25T19:19:36.452Z,13.98
2023-01-25T19:22:03.403Z,12.07
2023-01-25T19:24:33.105Z,28.05
2023-01-25T19:27:02.576Z,19.45
2023-01-25T19:29:29.567Z,13.52
2023-01-25T19:31:56.518Z,13.85
2023-01-25T19:34:23.649Z,13.35
2023-01-25T19:36:50.623Z,13.98
2023-01-25T19:39:18.052Z,11.90
2023-01-25T19:41:45.131Z,14.73
2023-01-25T19:44:14.469Z,12.88
2023-01-25T19:46:43.230Z,13.77
2023-01-25T19:49:32.764Z,13.90
2023-01-25T19:51:59.625Z,12.60
2023-01-25T19:54:26.846Z,11.75
2023-01-25T19:56:53.763Z,13.75
2023-01-25T19:59:25.651Z,11.18
2023-01-25T20:01:53.421Z,11.82
2023-01-25T20:04:47.403Z,12.25
2023-01-25T20:07:14.451Z,10.90
2023-01-25T20:09:41.524Z,9.75
2023-01-25T20:12:08.875Z,11.00
2023-01-25T20:14:37.855Z,11.15
2023-01-25T20:17:06.307Z,10.93
2023-01-25T20:19:35.138Z,10.73
2023-01-25T20:22:02.563Z,9.10
2023-01-25T20:24:29.664Z,9.73
2023-01-25T20:26:58.617Z,9.30
2023-01-25T20:29:27.547Z,8.30
2023-01-25T20:31:55.026Z,7.63
2023-01-25T20:34:24.055Z,10.10
2023-01-25T20:36:51.759Z,10.50
2023-01-25T20:39:22.600Z,9.05
2023-01-25T20:41:53.268Z,8.30
2023-01-25T20:44:21.012Z,9.32
2023-01-25T20:46:48.625Z,8.45
2023-01-25T20:49:18.526Z,9.25
2023-01-25T20:51:47.288Z,8.85
2023-01-25T20:54:15.910Z,9.27
2023-01-25T20:56:42.951Z,8.48
2023-01-25T20:59:10.182Z,8.80
2023-01-25T21:01:37.569Z,8.90
2023-01-25T21:04:09.333Z,9.80
2023-01-25T21:06:38.565Z,9.35
2023-01-25T21:09:06.411Z,8.40
2023-01-25T21:11:33.348Z,9.32
2023-01-25T21:14:00.747Z,7.68
2023-01-25T21:16:27.788Z,9.55
2023-01-25T21:18:59.079Z,6.75
2023-01-25T21:21:29.757Z,7.00
2023-01-25T21:23:59.858Z,6.50
2023-01-25T21:26:34.683Z,7.68
2023-01-25T21:29:04.711Z,6.72
2023-01-25T21:31:36.727Z,8.70
2023-01-25T21:34:06.177Z,6.40
2023-01-25T21:36:33.370Z,7.50
2023-01-25T21:39:00.355Z,6.07
2023-01-25T21:41:33.030Z,6.53
2023-01-25T21:44:20.394Z,7.13
2023-01-25T21:47:12.463Z,7.78
2023-01-25T21:49:53.863Z,7.95
2023-01-25T21:52:20.875Z,11.23
2023-01-25T21:54:47.828Z,8.45
2023-01-25T21:57:14.813Z,8.35
2023-01-25T21:59:41.740Z,10.10
2023-01-25T22:02:14.737Z,9.40
2023-01-25T22:04:42.048Z,7.45
2023-01-25T22:07:09.918Z,7.13
2023-01-25T22:09:36.968Z,25.55
2023-01-25T22:12:04.233Z,9.07
2023-01-25T22:14:31.226Z,9.73
2023-01-25T22:16:58.167Z,8.35
2023-01-25T22:19:25.213Z,10.77
2023-01-25T22:21:52.188Z,7.95
2023-01-25T22:24:19.233Z,9.40
2023-01-25T22:26:58.186Z,8.43
2023-01-25T22:29:26.423Z,8.63
2023-01-25T22:31:53.361Z,7.55
2023-01-25T22:34:20.288Z,8.70
2023-01-25T22:36:48.450Z,9.98
2023-01-25T22:39:15.554Z,9.05
2023-01-25T22:41:42.576Z,7.80
2023-01-25T22:44:14.355Z,7.45
2023-01-25T22:46:41.293Z,7.35
2023-01-25T22:49:08.882Z,6.90
2023-01-25T22:51:35.807Z,9.20
2023-01-25T22:54:02.697Z,7.93
2023-01-25T22:56:33.110Z,7.32
2023-01-25T22:59:01.589Z,8.40
2023-01-25T23:01:34.476Z,7.80
2023-01-25T23:04:02.594Z,9.13
2023-01-25T23:06:34.183Z,7.82
2023-01-25T23:09:06.398Z,9.45
2023-01-25T23:11:37.873Z,7.25
2023-01-25T23:14:30.047Z,9.13
2023-01-25T23:17:17.123Z,8.80
2023-01-25T23:19:44.402Z,8.75
2023-01-25T23:22:11.301Z,8.77
2023-01-25T23:24:38.194Z,8.63
2023-01-25T23:27:05.133Z,9.48
2023-01-25T23:29:32.273Z,9.00
2023-01-25T23:31:59.242Z,7.43
2023-01-25T23:34:26.514Z,8.27
2023-01-25T23:36:53.387Z,8.88
2023-01-25T23:39:20.368Z,7.60
2023-01-25T23:41:47.995Z,7.93
2023-01-25T23:44:14.911Z,7.30
2023-01-25T23:46:41.895Z,8.23
2023-01-25T23:49:08.907Z,9.23
2023-01-25T23:51:35.851Z,8.50
2023-01-25T23:54:02.715Z,8.30
2023-01-25T23:56:29.623Z,9.00
2023-01-25T23:58:57.132Z,9.90
